Terminal Aerodrome Forecast
Issued by NWS Austin/San Antonio, TX

Home | Current Version | Previous Version | Text Only | Print | Product List | Glossary On
Versions: 1 2 3 4 5 6 7 8 9 10 11 12 13 14 15 16 17 18 19 20
326
FTUS44 KEWX 101741
TAFSAT
TAF
KSAT 101741Z 1018/1124 12005KT P6SM OVC017
     FM110000 14006KT 6SM BR VCSH OVC009
     FM110400 VRB03KT 3SM -DZ BR OVC004
     FM111400 24005KT P6SM OVC008
     FM112000 23010KT P6SM OVC012=

USA.gov is the U.S. government's official web portal to all federal, state and local government web resources and services.